Pryor, Oklahoma
Current Conditions -  °F | °C
As of 8:55 PM on Sunday 23 Nov 2014 (Local Time) from KGCM Reporting Station
Light Rain Light Rain  
Wind Chill: 35°   Ceiling: Unl
Heat Index: 43°   Visibility: 10mi
Dew Point: 41°   Wind: 17mph
Humidity: 93%   Direction: 330°NNW
Pressure: 29.57"   Gusts: 29mph
Location:  36.31°N, 95.32°W
Report Text: KGCM 240255Z AUTO 33015G25KT 10SM -RA SCT010 SCT014 SCT019 06/05 A2957 RMK AO2 P0001
Loading
Personal Weather Stations






























Interactive Weather Map New forecast layout! Learn more

10-Day Weather Forecast

Advertisements
Track Severe Weather on mobile